Time;durP1;ratioP1;P1;durP2;ratioP2;P2;SDS_P1;SDS_P2;PMS_P1;PMS_P2;Temp;Humidity;BMP_temperature;BMP_pressure;BME280_temperature;BME280_humidity;BME280_pressure;Samples;Min_cycle;Max_cycle;Signal;HPM_P1;HPM_P2
2023/06/13 00:01:09;;;;;;;8.30;5.30;;;;;;;12.83;68.31;100989.75;4987151;28;20588;-71
2023/06/13 00:03:37;;;;;;;7.73;5.30;;;;;;;12.78;67.99;100982.78;4992104;28;20236;-71
2023/06/13 00:06:03;;;;;;;8.10;5.60;;;;;;;12.71;68.10;100985.22;4999462;28;20192;-71
2023/06/13 00:08:31;;;;;;;6.33;5.70;;;;;;;12.69;69.17;100984.75;4991711;28;20202;-71
2023/06/13 00:10:57;;;;;;;6.97;6.03;;;;;;;12.68;69.06;100985.84;4991549;28;20204;-71
2023/06/13 00:13:24;;;;;;;13.90;5.60;;;;;;;12.62;68.84;100981.88;4991962;28;20213;-70
2023/06/13 00:15:56;;;;;;;7.23;5.90;;;;;;;12.64;70.42;100987.63;4991933;28;20616;-71
2023/06/13 00:18:23;;;;;;;8.50;5.70;;;;;;;12.61;69.91;100976.91;4991355;28;20215;-71
2023/06/13 00:20:54;;;;;;;9.27;6.17;;;;;;;12.55;69.61;100976.34;4991125;28;20238;-71
2023/06/13 00:23:21;;;;;;;8.53;5.70;;;;;;;12.56;70.15;100974.47;4990456;28;20327;-71
2023/06/13 00:25:48;;;;;;;8.40;5.23;;;;;;;12.52;70.40;100971.69;4986064;28;20693;-71
2023/06/13 00:28:15;;;;;;;5.90;5.40;;;;;;;12.52;70.30;100968.28;4991791;28;20603;-71
2023/06/13 00:30:41;;;;;;;7.53;6.37;;;;;;;12.47;70.92;100971.91;4991543;28;20225;-71
2023/06/13 00:33:10;;;;;;;8.90;5.70;;;;;;;12.46;70.88;100972.22;4990449;28;20224;-71
2023/06/13 00:35:37;;;;;;;9.77;5.50;;;;;;;12.44;70.69;100971.78;4991659;28;20225;-70
2023/06/13 00:38:06;;;;;;;12.60;5.90;;;;;;;12.43;71.16;100971.00;4988232;28;20243;-70
2023/06/13 00:40:34;;;;;;;8.40;6.13;;;;;;;12.41;70.87;100970.56;4990605;28;20221;-71
2023/06/13 00:43:00;;;;;;;9.70;6.77;;;;;;;12.37;71.16;100967.03;4990336;28;20224;-71
2023/06/13 00:45:33;;;;;;;7.43;6.13;;;;;;;12.33;71.53;100970.66;4990353;28;20710;-71
2023/06/13 00:48:02;;;;;;;9.10;5.97;;;;;;;12.30;71.58;100958.84;4991451;28;20204;-71
2023/06/13 00:50:34;;;;;;;8.20;6.00;;;;;;;12.29;71.37;100961.81;4990220;28;20197;-71
2023/06/13 00:53:03;;;;;;;9.03;6.37;;;;;;;12.28;71.94;100963.72;4999631;28;20232;-71
2023/06/13 00:55:30;;;;;;;6.77;6.07;;;;;;;12.23;71.20;100965.78;4990257;28;20203;-71
2023/06/13 00:58:06;;;;;;;11.67;5.83;;;;;;;12.17;71.61;100962.56;4991737;28;20200;-70
2023/06/13 01:00:33;;;;;;;7.70;5.37;;;;;;;12.12;71.12;100960.09;4989575;28;20229;-70
2023/06/13 01:02:59;;;;;;;7.83;6.33;;;;;;;12.07;71.69;100968.25;4989533;28;20248;-70
2023/06/13 01:05:28;;;;;;;9.77;5.90;;;;;;;12.04;72.47;100963.63;4986837;28;20241;-70
2023/06/13 01:07:57;;;;;;;6.93;6.00;;;;;;;11.96;72.02;100955.75;4982381;28;20261;-71
2023/06/13 01:10:26;;;;;;;7.30;5.93;;;;;;;11.93;72.83;100966.97;4998482;28;20200;-71
2023/06/13 01:13:01;;;;;;;15.10;6.23;;;;;;;11.88;72.97;100965.31;5001791;28;20235;-71
2023/06/13 01:15:32;;;;;;;10.53;6.40;;;;;;;11.83;71.68;100965.53;4984567;28;20700;-71
2023/06/13 01:18:03;;;;;;;11.60;6.70;;;;;;;11.80;71.83;100965.41;4989945;28;20209;-71
2023/06/13 01:20:33;;;;;;;9.80;6.60;;;;;;;11.76;72.55;100972.44;4990781;28;20497;-70
2023/06/13 01:23:17;;;;;;;10.47;6.43;;;;;;;11.69;72.33;100959.72;4997531;28;20621;-70
2023/06/13 01:25:57;;;;;;;7.80;6.50;;;;;;;11.67;72.98;100959.28;5012278;28;20650;-71
2023/06/13 01:28:26;;;;;;;7.13;6.43;;;;;;;11.63;73.30;100957.56;4993798;28;20213;-71
2023/06/13 01:30:54;;;;;;;10.40;6.63;;;;;;;11.61;73.27;100960.56;4991617;28;20203;-71
2023/06/13 01:33:22;;;;;;;9.93;6.80;;;;;;;11.55;73.64;100961.78;4980617;28;20228;-71
2023/06/13 01:35:49;;;;;;;9.87;6.77;;;;;;;11.49;73.69;100957.78;4995279;28;20207;-70
2023/06/13 01:38:16;;;;;;;9.20;6.83;;;;;;;11.46;73.66;100961.09;4995219;28;20207;-71
2023/06/13 01:40:44;;;;;;;9.80;6.80;;;;;;;11.44;74.72;100963.28;4994621;28;20302;-71
2023/06/13 01:43:10;;;;;;;10.80;7.00;;;;;;;11.34;73.49;100955.72;5001494;28;20230;-70
2023/06/13 01:45:41;;;;;;;10.33;6.50;;;;;;;11.35;73.53;100956.50;4993695;28;20209;-71
2023/06/13 01:48:13;;;;;;;10.03;6.67;;;;;;;11.33;73.92;100953.41;4994746;28;20563;-71
2023/06/13 01:50:47;;;;;;;8.80;6.53;;;;;;;11.30;74.37;100954.03;4994588;28;20205;-71
2023/06/13 01:53:23;;;;;;;7.97;7.17;;;;;;;11.22;73.13;100955.66;4977909;28;20218;-71
2023/06/13 01:55:53;;;;;;;9.60;7.03;;;;;;;11.17;73.42;100955.03;4991961;28;20205;-71
2023/06/13 01:58:23;;;;;;;10.00;7.73;;;;;;;11.15;74.67;100957.25;5010116;28;20717;-71
2023/06/13 02:00:55;;;;;;;9.03;6.83;;;;;;;11.12;74.26;100968.47;4977559;28;20223;-70
2023/06/13 02:03:23;;;;;;;14.33;6.63;;;;;;;11.10;74.88;100960.06;4993169;28;20225;-70
2023/06/13 02:05:50;;;;;;;8.27;7.37;;;;;;;11.06;74.15;100954.66;5010995;28;20302;-70
2023/06/13 02:08:17;;;;;;;7.90;6.90;;;;;;;11.07;74.72;100961.47;4994476;28;20542;-70
2023/06/13 02:10:44;;;;;;;10.13;8.70;;;;;;;10.98;72.35;100958.09;5009587;28;20201;-70
2023/06/13 02:13:10;;;;;;;8.87;7.70;;;;;;;10.89;70.29;100965.31;4994066;28;20225;-70
2023/06/13 02:15:40;;;;;;;10.10;8.10;;;;;;;10.81;68.29;100973.28;4994365;28;20288;-70
2023/06/13 02:18:10;;;;;;;12.70;8.73;;;;;;;10.77;69.50;100967.06;4994229;28;20195;-71
2023/06/13 02:20:36;;;;;;;13.13;8.30;;;;;;;10.73;70.13;100960.84;4993864;28;20227;-70
2023/06/13 02:23:03;;;;;;;10.23;9.23;;;;;;;10.78;72.63;100961.47;4991223;28;20636;-71
2023/06/13 02:25:32;;;;;;;11.17;8.93;;;;;;;10.83;74.51;100957.88;4992832;28;20256;-71
2023/06/13 02:27:58;;;;;;;10.17;8.80;;;;;;;10.76;73.16;100953.06;4993895;28;20205;-71
2023/06/13 02:30:25;;;;;;;11.03;7.97;;;;;;;10.72;73.58;100941.59;4993900;28;20198;-71
2023/06/13 02:32:52;;;;;;;10.70;8.47;;;;;;;10.81;75.91;100954.78;4991933;28;20252;-71
2023/06/13 02:35:23;;;;;;;10.17;8.67;;;;;;;10.80;75.02;100951.34;5003919;28;20212;-71
2023/06/13 02:37:50;;;;;;;9.27;8.10;;;;;;;10.80;75.57;100959.28;5004424;28;20215;-71
2023/06/13 02:40:17;;;;;;;10.97;8.87;;;;;;;10.79;74.45;100949.81;4993540;28;20210;-70
2023/06/13 02:42:47;;;;;;;10.53;8.73;;;;;;;10.82;74.70;100951.81;4993735;28;20221;-70
2023/06/13 02:45:13;;;;;;;17.33;8.63;;;;;;;10.82;74.85;100951.03;4992377;28;20194;-71
2023/06/13 02:47:43;;;;;;;9.50;8.50;;;;;;;10.81;74.62;100947.63;4985623;28;20205;-71
2023/06/13 02:50:09;;;;;;;9.40;7.83;;;;;;;10.77;73.50;100948.56;4977006;28;20210;-71
2023/06/13 02:52:38;;;;;;;10.10;8.00;;;;;;;10.76;74.82;100949.66;4992250;28;20240;-71
2023/06/13 02:55:08;;;;;;;11.63;7.83;;;;;;;10.76;75.29;100945.16;4992658;28;20208;-71
2023/06/13 02:57:36;;;;;;;11.37;8.47;;;;;;;10.70;74.42;100941.13;4992152;28;20700;-71
2023/06/13 03:00:07;;;;;;;8.83;7.70;;;;;;;10.68;74.32;100945.19;4991873;28;20225;-71
2023/06/13 03:02:36;;;;;;;8.90;8.00;;;;;;;10.65;73.99;100935.25;4991757;28;20209;-71
2023/06/13 03:05:04;;;;;;;8.73;7.83;;;;;;;10.61;74.74;100937.00;4991079;28;20296;-70
2023/06/13 03:07:31;;;;;;;10.40;8.67;;;;;;;10.61;74.36;100937.00;4992077;28;20194;-71
2023/06/13 03:10:00;;;;;;;12.40;8.60;;;;;;;10.64;75.41;100936.34;4991753;28;20206;-71
2023/06/13 03:12:26;;;;;;;10.13;8.63;;;;;;;10.64;74.81;100934.47;4991580;28;20198;-71
2023/06/13 03:14:53;;;;;;;11.37;8.20;;;;;;;10.70;76.22;100938.50;4991838;28;20205;-71
2023/06/13 03:17:19;;;;;;;12.80;8.63;;;;;;;10.71;74.59;100929.47;4993427;28;20652;-70
2023/06/13 03:19:46;;;;;;;9.50;8.60;;;;;;;10.70;74.41;100927.94;4992084;28;20200;-70
2023/06/13 03:22:14;;;;;;;9.47;8.30;;;;;;;10.75;74.60;100930.41;4989790;28;20217;-71
2023/06/13 03:24:41;;;;;;;11.23;8.67;;;;;;;10.83;74.68;100921.66;4972322;28;20283;-71
2023/06/13 03:27:12;;;;;;;10.30;8.53;;;;;;;10.91;74.42;100923.47;4980573;28;20211;-71
2023/06/13 03:29:40;;;;;;;9.20;8.27;;;;;;;10.94;73.09;100914.16;4979847;28;20201;-71
2023/06/13 03:32:08;;;;;;;10.27;9.27;;;;;;;10.94;71.90;100914.94;4991389;28;20635;-71
2023/06/13 03:34:37;;;;;;;10.83;8.40;;;;;;;10.95;71.96;100910.41;4996491;28;20227;-71
2023/06/13 03:37:09;;;;;;;8.77;7.33;;;;;;;11.05;73.83;100915.31;5009418;28;20200;-71
2023/06/13 03:39:37;;;;;;;8.87;7.97;;;;;;;11.13;74.15;100925.84;4981855;28;20555;-71
2023/06/13 03:42:04;;;;;;;9.37;8.47;;;;;;;11.22;74.36;100920.50;4982588;28;20228;-71
2023/06/13 03:44:32;;;;;;;10.30;7.80;;;;;;;11.32;74.46;100920.91;4990667;28;20734;-71
2023/06/13 03:46:59;;;;;;;8.83;7.93;;;;;;;11.42;74.62;100925.81;4992212;28;20278;-71
2023/06/13 03:49:26;;;;;;;9.17;7.93;;;;;;;11.47;74.55;100927.47;4994152;28;20227;-71
2023/06/13 03:51:53;;;;;;;9.77;7.87;;;;;;;11.46;72.59;100936.53;4995297;28;20200;-71
2023/06/13 03:54:20;;;;;;;9.80;8.00;;;;;;;11.52;73.26;100933.38;4990824;28;20228;-71
2023/06/13 03:56:46;;;;;;;10.17;7.67;;;;;;;11.65;73.61;100934.22;4991071;28;20253;-71
2023/06/13 03:59:12;;;;;;;9.00;8.17;;;;;;;11.68;72.63;100923.00;4991359;28;20207;-71
2023/06/13 04:01:41;;;;;;;10.37;8.57;;;;;;;11.71;71.95;100917.06;4990387;28;20216;-71
2023/06/13 04:04:08;;;;;;;9.20;8.27;;;;;;;11.73;72.82;100917.50;4988436;28;20239;-71
2023/06/13 04:06:37;;;;;;;9.27;7.90;;;;;;;11.77;72.04;100915.75;4986847;28;20193;-71
2023/06/13 04:09:05;;;;;;;9.70;8.70;;;;;;;11.84;73.02;100918.66;4983833;28;20196;-71
2023/06/13 04:11:31;;;;;;;10.67;8.50;;;;;;;11.90;72.98;100914.72;4991892;28;20509;-71
2023/06/13 04:13:58;;;;;;;10.33;8.20;;;;;;;11.93;72.46;100912.19;4983957;28;20588;-71
2023/06/13 04:16:24;;;;;;;10.83;8.33;;;;;;;11.92;71.02;100913.31;4989082;28;20208;-71
2023/06/13 04:18:54;;;;;;;10.03;8.77;;;;;;;11.92;71.04;100902.72;4993728;28;20235;-71
2023/06/13 04:21:24;;;;;;;8.97;7.90;;;;;;;11.96;70.78;100910.78;4989550;28;20315;-71
2023/06/13 04:23:51;;;;;;;11.70;8.30;;;;;;;12.01;70.60;100906.03;4984106;28;20257;-71
2023/06/13 04:26:18;;;;;;;9.20;8.30;;;;;;;12.00;69.84;100904.50;4986792;28;20209;-71
2023/06/13 04:28:45;;;;;;;8.90;8.00;;;;;;;12.15;71.91;100909.16;4987200;28;20227;-71
2023/06/13 04:31:11;;;;;;;8.23;7.43;;;;;;;12.24;71.91;100909.06;4986765;28;20221;-71
2023/06/13 04:33:39;;;;;;;10.67;8.17;;;;;;;12.31;71.70;100909.31;4981462;28;20234;-71
2023/06/13 04:36:08;;;;;;;9.03;7.57;;;;;;;12.43;71.65;100906.69;4993954;28;20573;-71
2023/06/13 04:38:37;;;;;;;10.70;8.33;;;;;;;12.51;71.36;100903.94;4989910;28;20193;-71
2023/06/13 04:41:04;;;;;;;10.43;8.10;;;;;;;12.61;71.45;100900.84;4993352;28;20244;-71
2023/06/13 04:43:33;;;;;;;11.73;8.53;;;;;;;12.73;72.27;100905.41;5010870;28;20216;-71
2023/06/13 04:46:03;;;;;;;10.67;8.47;;;;;;;12.81;71.01;100905.28;4992405;28;20201;-71
2023/06/13 04:48:30;;;;;;;11.33;7.70;;;;;;;12.96;71.35;100898.56;4983527;28;20610;-71
2023/06/13 04:50:58;;;;;;;8.77;7.87;;;;;;;13.12;71.14;100889.59;4993140;28;20304;-71
2023/06/13 04:53:26;;;;;;;11.70;8.80;;;;;;;13.25;70.12;100901.72;4990899;28;20217;-71
2023/06/13 04:55:52;;;;;;;12.97;8.50;;;;;;;13.38;69.99;100891.84;4994340;28;20577;-71
2023/06/13 04:58:19;;;;;;;10.73;8.10;;;;;;;13.54;69.99;100892.69;4994103;28;20210;-71
2023/06/13 05:00:48;;;;;;;9.60;8.10;;;;;;;13.69;70.26;100892.75;4992584;28;20330;-71
2023/06/13 05:03:16;;;;;;;12.63;8.13;;;;;;;13.84;70.03;100899.97;4993340;28;20305;-71
2023/06/13 05:05:43;;;;;;;9.80;8.07;;;;;;;13.98;69.46;100894.28;4988862;28;20587;-71
2023/06/13 05:08:10;;;;;;;8.80;7.87;;;;;;;14.11;69.10;100896.50;4994810;28;20195;-71
2023/06/13 05:10:37;;;;;;;10.27;8.27;;;;;;;14.28;69.49;100904.19;4990172;28;20631;-71
2023/06/13 05:13:04;;;;;;;9.53;8.53;;;;;;;14.39;67.66;100899.91;4994284;28;20221;-71
2023/06/13 05:15:30;;;;;;;8.80;7.90;;;;;;;14.55;66.60;100903.31;4989340;28;20561;-71
2023/06/13 05:17:57;;;;;;;10.87;7.27;;;;;;;14.70;66.66;100907.13;4981291;28;20737;-71
2023/06/13 05:20:26;;;;;;;9.43;7.87;;;;;;;14.84;66.04;100908.19;4987950;28;20209;-71
2023/06/13 05:22:53;;;;;;;10.03;8.37;;;;;;;14.98;65.23;100905.09;4990109;28;20257;-71
2023/06/13 05:25:20;;;;;;;8.57;7.60;;;;;;;15.08;65.09;100905.34;4990267;28;20205;-71
2023/06/13 05:27:48;;;;;;;13.50;7.67;;;;;;;15.18;64.69;100901.34;4994243;28;20214;-71
2023/06/13 05:30:15;;;;;;;8.70;7.80;;;;;;;15.27;64.52;100901.94;4980610;28;20285;-71
2023/06/13 05:32:41;;;;;;;9.03;7.60;;;;;;;15.34;64.01;100892.25;4982553;28;20205;-71
2023/06/13 05:35:08;;;;;;;12.40;8.33;;;;;;;15.41;63.85;100903.03;5001534;28;20208;-71
2023/06/13 05:37:36;;;;;;;8.53;7.67;;;;;;;15.50;63.04;100900.16;4997185;28;20205;-71
2023/06/13 05:40:04;;;;;;;9.50;7.23;;;;;;;15.58;62.49;100904.50;4990738;28;20205;-71
2023/06/13 05:42:31;;;;;;;9.10;7.23;;;;;;;15.67;62.57;100902.38;4993456;28;20233;-71
2023/06/13 05:45:01;;;;;;;11.20;7.50;;;;;;;15.77;61.88;100905.25;4992502;28;20209;-71
2023/06/13 05:47:27;;;;;;;9.43;7.27;;;;;;;15.91;61.42;100899.44;4992601;28;20653;-71
2023/06/13 05:49:54;;;;;;;8.83;5.97;;;;;;;16.06;60.62;100904.66;4988345;28;20210;-71
2023/06/13 05:52:21;;;;;;;7.97;5.83;;;;;;;16.21;59.06;100900.34;4993487;28;20210;-71
2023/06/13 05:54:48;;;;;;;9.40;5.90;;;;;;;16.35;56.93;100904.03;4994290;28;20211;-71
2023/06/13 05:57:15;;;;;;;7.83;5.73;;;;;;;16.47;57.61;100898.56;4987769;28;20204;-71
2023/06/13 05:59:44;;;;;;;7.73;5.90;;;;;;;16.62;53.81;100889.63;4991038;28;20677;-71
2023/06/13 06:02:12;;;;;;;7.17;5.70;;;;;;;16.78;54.69;100892.94;4991042;28;20740;-71
2023/06/13 06:04:38;;;;;;;9.17;6.03;;;;;;;16.97;53.14;100890.16;4992496;28;20228;-71
2023/06/13 06:07:06;;;;;;;9.33;6.23;;;;;;;17.14;53.49;100894.19;4995271;28;20201;-71
2023/06/13 06:09:32;;;;;;;8.20;5.60;;;;;;;17.31;53.34;100888.31;4992428;28;20239;-71
2023/06/13 06:11:59;;;;;;;8.00;5.50;;;;;;;17.48;49.49;100885.91;4994058;28;20249;-71
2023/06/13 06:14:25;;;;;;;6.87;6.00;;;;;;;17.64;51.29;100883.03;4992644;28;20220;-71
2023/06/13 06:16:51;;;;;;;7.17;5.50;;;;;;;17.80;48.38;100880.91;4993873;28;20684;-71
2023/06/13 06:19:19;;;;;;;7.70;5.67;;;;;;;17.91;48.59;100879.88;4994344;28;20667;-71
2023/06/13 06:21:45;;;;;;;7.50;5.47;;;;;;;18.03;48.19;100876.19;4993033;28;20228;-71
2023/06/13 06:24:12;;;;;;;9.40;5.40;;;;;;;18.14;47.97;100893.06;4990299;28;20688;-71
2023/06/13 06:26:38;;;;;;;10.03;5.70;;;;;;;18.23;48.98;100888.19;4989960;28;20689;-71
2023/06/13 06:29:04;;;;;;;8.27;5.33;;;;;;;18.34;50.51;100887.19;4986520;28;20201;-71
2023/06/13 06:31:31;;;;;;;6.53;5.90;;;;;;;18.46;48.42;100884.22;4985979;28;20223;-71
2023/06/13 06:33:57;;;;;;;7.60;5.77;;;;;;;18.58;48.76;100889.28;4992496;28;20225;-71
2023/06/13 06:36:25;;;;;;;7.90;5.70;;;;;;;18.72;49.26;100876.00;4989576;28;20575;-71
2023/06/13 06:38:51;;;;;;;7.00;5.63;;;;;;;18.83;49.54;100884.88;4985813;28;20295;-71
2023/06/13 06:41:18;;;;;;;9.50;5.90;;;;;;;18.91;48.26;100881.09;4992005;28;20260;-71
2023/06/13 06:43:45;;;;;;;14.10;6.03;;;;;;;18.97;45.58;100884.19;4987193;28;20634;-71
2023/06/13 06:46:14;;;;;;;8.20;6.20;;;;;;;19.03;45.38;100880.78;4986896;28;20564;-71
2023/06/13 06:48:40;;;;;;;6.53;5.20;;;;;;;19.09;47.50;100881.22;4992360;28;20209;-71
2023/06/13 06:51:07;;;;;;;7.53;5.40;;;;;;;19.13;44.12;100879.28;4989365;28;20205;-71
2023/06/13 06:53:34;;;;;;;11.20;5.77;;;;;;;19.19;46.45;100880.50;4992262;28;20235;-71
2023/06/13 06:56:03;;;;;;;9.13;5.90;;;;;;;19.27;45.51;100882.06;4987748;28;20542;-71
2023/06/13 06:58:30;;;;;;;6.43;4.97;;;;;;;19.37;46.37;100874.09;4990179;28;20205;-71
2023/06/13 07:00:58;;;;;;;10.20;5.90;;;;;;;19.50;44.95;100874.53;4990895;28;20213;-71
2023/06/13 07:03:25;;;;;;;12.37;5.83;;;;;;;19.59;43.16;100872.25;4987641;28;20361;-71
2023/06/13 07:05:51;;;;;;;11.33;5.17;;;;;;;19.72;42.70;100876.88;4986780;28;20202;-71
2023/06/13 07:08:18;;;;;;;9.27;5.80;;;;;;;19.83;44.48;100880.38;4989824;28;20687;-71
2023/06/13 07:10:45;;;;;;;7.23;6.00;;;;;;;19.93;41.75;100873.47;4990935;28;20201;-71
2023/06/13 07:13:12;;;;;;;8.07;5.13;;;;;;;20.03;42.60;100873.47;4992656;28;20220;-71
2023/06/13 07:15:38;;;;;;;7.27;5.23;;;;;;;20.14;43.53;100873.53;4989307;28;20577;-71
2023/06/13 07:18:06;;;;;;;10.63;5.10;;;;;;;20.23;43.04;100865.88;4996230;28;20698;-71
2023/06/13 07:20:32;;;;;;;7.70;5.77;;;;;;;20.30;41.68;100872.03;4991865;28;20211;-71
2023/06/13 07:22:59;;;;;;;6.30;5.03;;;;;;;20.37;43.82;100865.88;4989195;28;20793;-71
2023/06/13 07:25:27;;;;;;;7.03;5.00;;;;;;;20.43;41.90;100869.72;4995058;28;20240;-71
2023/06/13 07:27:55;;;;;;;7.70;4.60;;;;;;;20.49;44.27;100863.56;4989974;28;20205;-71
2023/06/13 07:30:21;;;;;;;6.77;4.43;;;;;;;20.54;41.94;100860.50;4990631;28;20201;-71
2023/06/13 07:32:48;;;;;;;10.73;4.63;;;;;;;20.56;42.28;100860.91;4986088;28;20209;-71
2023/06/13 07:35:16;;;;;;;11.20;4.30;;;;;;;20.57;40.60;100867.78;4984060;28;20664;-71
2023/06/13 07:37:42;;;;;;;8.07;4.20;;;;;;;20.59;42.02;100870.09;4990101;28;20600;-71
2023/06/13 07:40:12;;;;;;;7.43;4.50;;;;;;;20.61;39.71;100876.59;4990763;28;20288;-71
2023/06/13 07:42:38;;;;;;;10.00;4.90;;;;;;;20.62;38.27;100869.31;4984722;28;20233;-71
2023/06/13 07:45:07;;;;;;;14.03;5.00;;;;;;;20.65;40.19;100869.28;4989548;28;20193;-71
2023/06/13 07:47:34;;;;;;;7.77;4.50;;;;;;;20.68;36.48;100867.75;4984811;28;20539;-71
2023/06/13 07:50:01;;;;;;;7.07;4.70;;;;;;;20.69;39.81;100869.31;4989835;28;20211;-71
2023/06/13 07:52:27;;;;;;;11.67;5.30;;;;;;;20.72;38.49;100866.63;4988390;28;20220;-71
2023/06/13 07:54:54;;;;;;;6.20;4.50;;;;;;;20.74;40.71;100869.66;5006211;28;20612;-71
2023/06/13 07:57:21;;;;;;;12.63;4.87;;;;;;;20.76;40.36;100867.38;4990079;28;20193;-71
2023/06/13 07:59:50;;;;;;;9.90;4.93;;;;;;;20.80;39.22;100862.75;4988278;28;20208;-71
2023/06/13 08:02:18;;;;;;;8.63;5.07;;;;;;;20.87;38.60;100867.34;4989202;28;20206;-71
2023/06/13 08:04:44;;;;;;;6.73;3.87;;;;;;;20.96;38.41;100860.44;4987224;28;20220;-71
2023/06/13 08:07:10;;;;;;;6.37;4.20;;;;;;;21.09;37.49;100855.41;4987789;28;20216;-71
2023/06/13 08:09:37;;;;;;;6.50;3.90;;;;;;;21.20;35.89;100851.53;4991180;28;20509;-71
2023/06/13 08:12:04;;;;;;;7.33;4.23;;;;;;;21.30;37.01;100848.06;4989099;28;20227;-71
2023/06/13 08:14:30;;;;;;;7.70;4.33;;;;;;;21.40;37.74;100852.63;4983224;28;20688;-71
2023/06/13 08:16:56;;;;;;;5.80;4.10;;;;;;;21.48;38.04;100853.34;4985207;28;20740;-71
2023/06/13 08:19:24;;;;;;;6.43;4.23;;;;;;;21.56;36.05;100836.00;4983587;28;20197;-71
2023/06/13 08:21:50;;;;;;;5.37;4.00;;;;;;;21.66;37.68;100848.63;4990888;28;20687;-71
2023/06/13 08:24:17;;;;;;;6.07;3.97;;;;;;;21.75;37.33;100835.53;4988183;28;20222;-71
2023/06/13 08:26:44;;;;;;;8.77;4.20;;;;;;;21.84;36.70;100838.56;4986327;28;20208;-71
2023/06/13 08:29:11;;;;;;;6.07;3.90;;;;;;;21.96;36.45;100838.88;4988077;28;20201;-71
2023/06/13 08:31:40;;;;;;;11.17;4.30;;;;;;;22.11;33.64;100842.97;4991478;28;20197;-71
2023/06/13 08:34:09;;;;;;;6.27;4.10;;;;;;;22.35;34.47;100843.94;4987505;28;20585;-71
2023/06/13 08:36:37;;;;;;;4.37;3.70;;;;;;;22.54;34.72;100849.53;4985464;28;20268;-71
2023/06/13 08:39:03;;;;;;;6.17;4.33;;;;;;;22.71;34.63;100850.53;4988004;28;20591;-71
2023/06/13 08:41:31;;;;;;;5.28;4.07;;;;;;;22.79;34.41;100854.69;4987459;28;20201;-72
2023/06/13 08:43:58;;;;;;;6.67;4.50;;;;;;;22.82;34.54;100851.94;4986664;28;20213;-71
2023/06/13 08:46:25;;;;;;;8.30;4.85;;;;;;;22.87;34.00;100854.19;4990641;28;20276;-71
2023/06/13 08:48:52;;;;;;;5.93;4.35;;;;;;;22.93;34.69;100854.53;4985830;28;20756;-71
2023/06/13 08:51:19;;;;;;;8.10;4.33;;;;;;;22.98;34.15;100854.09;4985207;28;20534;-72
2023/06/13 08:53:49;;;;;;;8.77;4.40;;;;;;;23.01;34.49;100862.13;4984864;28;20228;-72
2023/06/13 08:56:18;;;;;;;9.50;4.60;;;;;;;23.06;34.08;100863.59;4986492;28;20263;-71
2023/06/13 08:58:46;;;;;;;7.33;5.13;;;;;;;23.10;33.34;100862.41;4989841;28;20200;-71
2023/06/13 09:01:13;;;;;;;8.93;5.60;;;;;;;23.07;33.82;100860.50;4989618;28;20205;-71
2023/06/13 09:03:40;;;;;;;10.73;5.20;;;;;;;23.13;34.27;100863.53;4985776;28;20232;-71
2023/06/13 09:06:07;;;;;;;11.13;5.80;;;;;;;23.12;34.04;100857.38;4983654;28;20217;-71
2023/06/13 09:08:36;;;;;;;7.73;5.80;;;;;;;23.18;34.12;100869.25;4989308;28;20211;-71
2023/06/13 09:11:05;;;;;;;8.30;5.43;;;;;;;23.26;33.47;100866.50;4990081;28;20268;-71
2023/06/13 09:13:32;;;;;;;10.95;5.13;;;;;;;23.28;33.61;100862.97;4984922;28;20225;-71
2023/06/13 09:15:59;;;;;;;9.37;5.40;;;;;;;23.34;33.58;100869.44;4987772;28;20193;-71
2023/06/13 09:18:27;;;;;;;8.05;4.65;;;;;;;23.29;33.36;100861.06;4983889;28;20202;-71
2023/06/13 09:20:54;;;;;;;6.55;4.40;;;;;;;23.27;32.40;100862.63;4986069;28;20579;-71
2023/06/13 09:23:21;;;;;;;5.82;4.75;;;;;;;23.28;32.77;100868.38;4987867;28;20261;-71
2023/06/13 09:25:48;;;;;;;6.68;4.32;;;;;;;23.34;33.22;100874.09;4987417;28;20208;-71
2023/06/13 09:28:30;;;;;;;6.28;4.30;;;;;;;23.39;32.49;100876.34;4984499;28;20201;-72
2023/06/13 09:30:57;;;;;;;8.00;3.78;;;;;;;23.42;32.82;100867.44;4986987;28;20190;-71
2023/06/13 09:33:24;;;;;;;9.05;3.40;;;;;;;23.39;32.82;100877.09;4988191;28;20445;-71
2023/06/13 09:35:51;;;;;;;5.10;3.35;;;;;;;23.30;31.92;100873.38;4991958;28;20202;-71
2023/06/13 09:38:23;;;;;;;9.70;4.22;;;;;;;23.27;31.78;100872.25;4990968;28;20657;-71
2023/06/13 09:40:49;;;;;;;8.35;4.15;;;;;;;23.15;32.23;100872.75;4983373;28;20241;-71
2023/06/13 09:43:16;;;;;;;8.68;3.85;;;;;;;23.07;32.82;100876.69;4990251;28;20224;-71
2023/06/13 09:45:44;;;;;;;7.00;3.75;;;;;;;23.07;32.76;100878.63;4993792;28;20537;-71
2023/06/13 09:48:11;;;;;;;7.03;3.20;;;;;;;23.02;32.84;100879.81;4991074;28;20210;-71
2023/06/13 09:50:40;;;;;;;6.28;4.18;;;;;;;23.02;32.68;100876.38;4992099;28;20201;-71
2023/06/13 09:53:07;;;;;;;6.95;4.05;;;;;;;23.02;32.92;100881.75;4990722;28;20276;-72
2023/06/13 09:55:33;;;;;;;6.35;4.20;;;;;;;23.10;33.43;100872.41;4991284;28;20264;-72
2023/06/13 09:58:01;;;;;;;9.80;5.03;;;;;;;23.14;33.17;100884.69;4988417;28;20978;-71
2023/06/13 10:00:28;;;;;;;5.63;4.10;;;;;;;23.12;32.96;100872.78;4992948;28;20760;-71
2023/06/13 10:02:56;;;;;;;8.33;3.97;;;;;;;23.14;32.64;100878.53;4990558;28;20303;-71
2023/06/13 10:05:22;;;;;;;9.87;4.53;;;;;;;23.13;32.46;100875.06;4991577;28;20252;-71
2023/06/13 10:07:49;;;;;;;7.43;3.60;;;;;;;23.09;33.03;100873.59;4987573;28;20260;-71
2023/06/13 10:10:15;;;;;;;4.97;3.78;;;;;;;23.09;33.11;100874.38;4993748;28;20201;-71
2023/06/13 10:12:48;;;;;;;8.07;4.37;;;;;;;23.09;32.28;100873.59;4987174;28;20201;-71
2023/06/13 10:15:22;;;;;;;8.30;3.50;;;;;;;23.11;32.38;100866.63;4990700;28;20197;-71
2023/06/13 10:17:48;;;;;;;5.27;3.60;;;;;;;23.18;32.54;100868.53;4990449;28;20201;-71
2023/06/13 10:20:17;;;;;;;4.77;3.83;;;;;;;23.18;32.22;100861.19;4985953;28;20213;-71
2023/06/13 10:22:45;;;;;;;5.17;3.53;;;;;;;23.18;32.62;100865.81;4991930;28;20229;-71
2023/06/13 10:25:14;;;;;;;8.37;3.50;;;;;;;23.19;32.35;100864.66;4984340;28;20201;-71
2023/06/13 10:27:46;;;;;;;5.73;3.87;;;;;;;23.22;32.42;100858.44;5001028;28;20260;-71
2023/06/13 10:30:31;;;;;;;5.57;3.60;;;;;;;23.27;31.86;100874.94;4986217;28;20193;-71
2023/06/13 10:33:16;;;;;;;6.07;3.57;;;;;;;23.28;32.03;100873.00;4985811;28;20222;-72
2023/06/13 10:36:02;;;;;;;8.82;3.60;;;;;;;23.24;31.08;100862.25;4988872;28;20229;-72
2023/06/13 10:38:53;;;;;;;6.35;3.33;;;;;;;23.28;31.87;100856.84;4991741;28;20255;-71
2023/06/13 10:41:51;;;;;;;9.00;3.77;;;;;;;23.20;31.51;100852.69;4988540;28;20201;-71
2023/06/13 10:44:24;;;;;;;9.77;3.87;;;;;;;23.26;31.98;100848.38;4987439;28;20462;-71
2023/06/13 10:46:51;;;;;;;6.30;2.77;;;;;;;23.30;32.11;100854.50;4991205;28;20207;-71
2023/06/13 10:49:18;;;;;;;4.82;3.28;;;;;;;23.32;31.65;100851.41;4988253;28;20205;-71
2023/06/13 10:51:46;;;;;;;5.53;3.40;;;;;;;23.36;31.42;100857.53;4987203;28;20194;-71
2023/06/13 10:54:17;;;;;;;6.15;3.03;;;;;;;23.43;31.52;100845.47;4985052;28;20221;-71
2023/06/13 10:56:44;;;;;;;4.50;3.27;;;;;;;23.44;31.73;100855.06;4990616;28;20229;-71
2023/06/13 10:59:12;;;;;;;3.90;3.40;;;;;;;23.42;31.49;100858.59;4983395;28;20201;-71
2023/06/13 11:01:40;;;;;;;8.18;3.50;;;;;;;23.44;31.59;100854.34;4986080;28;20249;-71
2023/06/13 11:04:13;;;;;;;7.25;3.47;;;;;;;23.44;31.00;100851.63;4989181;28;20255;-71
2023/06/13 11:06:42;;;;;;;6.07;2.87;;;;;;;23.36;31.12;100855.56;4987709;28;20208;-71
2023/06/13 11:09:18;;;;;;;8.20;3.35;;;;;;;23.38;31.21;100850.56;4990141;28;20528;-72
2023/06/13 11:11:51;;;;;;;5.57;3.10;;;;;;;23.40;31.62;100848.22;4989579;28;20218;-71
2023/06/13 11:14:21;;;;;;;4.00;3.00;;;;;;;23.46;31.64;100838.50;4991876;28;20232;-71
2023/06/13 11:16:48;;;;;;;4.00;2.90;;;;;;;23.55;31.13;100844.16;4984946;28;20665;-72
2023/06/13 11:19:15;;;;;;;6.43;3.40;;;;;;;23.60;31.73;100841.75;4985845;28;20209;-71
2023/06/13 11:21:45;;;;;;;4.80;3.37;;;;;;;23.63;31.53;100840.19;4987938;28;20224;-71
2023/06/13 11:24:14;;;;;;;3.93;3.30;;;;;;;23.66;31.16;100831.28;4991828;28;20341;-71
2023/06/13 11:26:43;;;;;;;5.05;3.05;;;;;;;23.60;31.26;100833.66;4991608;28;20265;-71